Time;durP1;ratioP1;P1;durP2;ratioP2;P2;SDS_P1;SDS_P2;PMS_P1;PMS_P2;Temp;Humidity;BMP_temperature;BMP_pressure;BME280_temperature;BME280_humidity;BME280_pressure;Samples;Min_cycle;Max_cycle;Signal;HPM_P1;HPM_P2
2023/01/16 00:00:22;;;;;;;5.77;2.47;;;5.70;99.90;;;;;;6052401;23;20460;-75
2023/01/16 00:02:50;;;;;;;6.97;2.77;;;5.80;99.90;;;;;;6051590;23;20828;-74
2023/01/16 00:05:18;;;;;;;4.60;2.63;;;5.80;99.90;;;;;;6051885;23;20402;-75
2023/01/16 00:07:46;;;;;;;3.93;2.40;;;5.80;99.90;;;;;;6050732;23;20428;-74
2023/01/16 00:10:16;;;;;;;4.03;2.90;;;5.80;99.90;;;;;;6050618;23;20396;-74
2023/01/16 00:12:48;;;;;;;4.73;2.60;;;5.80;99.90;;;;;;6050666;23;20396;-74
2023/01/16 00:15:16;;;;;;;6.50;2.93;;;5.80;99.90;;;;;;6051352;23;20388;-75
2023/01/16 00:17:45;;;;;;;4.70;2.60;;;5.80;99.90;;;;;;6050612;23;20431;-74
2023/01/16 00:20:13;;;;;;;4.30;2.60;;;5.80;99.90;;;;;;6050544;23;20472;-73
2023/01/16 00:22:41;;;;;;;4.10;2.90;;;5.80;99.90;;;;;;6050385;23;20433;-74
2023/01/16 00:25:09;;;;;;;5.50;3.40;;;5.80;99.90;;;;;;6050523;23;20404;-73
2023/01/16 00:27:38;;;;;;;5.10;2.50;;;5.80;99.90;;;;;;6015533;23;20523;-73
2023/01/16 00:30:10;;;;;;;6.17;2.70;;;5.80;99.90;;;;;;6050402;23;20400;-74
2023/01/16 00:32:38;;;;;;;7.97;2.90;;;5.80;99.90;;;;;;6015617;23;20420;-73
2023/01/16 00:35:07;;;;;;;5.20;2.80;;;5.80;99.90;;;;;;6041166;23;20419;-74
2023/01/16 00:37:35;;;;;;;9.43;3.33;;;5.80;99.90;;;;;;6050913;23;20428;-74
2023/01/16 00:40:05;;;;;;;5.73;2.80;;;5.80;99.90;;;;;;6015443;23;20885;-75
2023/01/16 00:42:33;;;;;;;5.10;3.20;;;5.80;99.90;;;;;;6050360;23;20432;-74
2023/01/16 00:45:01;;;;;;;8.53;4.30;;;5.80;99.90;;;;;;6015489;23;20444;-75
2023/01/16 00:47:30;;;;;;;4.30;2.87;;;5.70;99.90;;;;;;6015302;23;20447;-75
2023/01/16 00:49:59;;;;;;;6.60;3.63;;;5.70;99.90;;;;;;6050144;23;20519;-74
2023/01/16 00:52:27;;;;;;;6.57;3.17;;;5.70;99.90;;;;;;6050174;23;20503;-74
2023/01/16 00:54:55;;;;;;;4.90;3.03;;;5.70;99.90;;;;;;6050039;23;20396;-75
2023/01/16 00:57:23;;;;;;;6.90;4.27;;;5.70;99.90;;;;;;6049954;23;20424;-74
2023/01/16 00:59:51;;;;;;;8.87;4.80;;;5.70;99.90;;;;;;6050666;23;20408;-74
2023/01/16 01:02:19;;;;;;;7.10;3.63;;;5.70;99.90;;;;;;6040276;23;20519;-74
2023/01/16 01:04:49;;;;;;;5.30;3.50;;;5.70;99.90;;;;;;6050016;23;20415;-74
2023/01/16 01:07:17;;;;;;;5.90;3.40;;;5.70;99.90;;;;;;6015048;23;20451;-74
2023/01/16 01:09:45;;;;;;;7.93;3.17;;;5.70;99.90;;;;;;6049931;23;20406;-74
2023/01/16 01:12:13;;;;;;;6.60;3.40;;;5.70;99.90;;;;;;6015193;23;20443;-74
2023/01/16 01:14:41;;;;;;;6.43;3.60;;;5.70;99.90;;;;;;6049803;23;20884;-73
2023/01/16 01:17:10;;;;;;;6.40;3.40;;;5.70;99.90;;;;;;6015060;23;20451;-73
2023/01/16 01:19:38;;;;;;;6.13;3.70;;;5.70;99.90;;;;;;6015037;23;20968;-74
2023/01/16 01:22:07;;;;;;;5.30;3.60;;;5.70;99.90;;;;;;6050445;23;20760;-74
2023/01/16 01:24:41;;;;;;;5.17;3.20;;;5.70;99.90;;;;;;6040555;23;20496;-74
2023/01/16 01:27:10;;;;;;;8.33;3.40;;;5.70;99.90;;;;;;6014870;23;20533;-74
2023/01/16 01:29:38;;;;;;;6.20;3.40;;;5.70;99.90;;;;;;6039997;23;20412;-74
2023/01/16 01:32:06;;;;;;;5.23;2.93;;;5.70;99.90;;;;;;6015055;23;20519;-74
2023/01/16 01:34:35;;;;;;;5.93;3.27;;;5.70;99.90;;;;;;6040219;23;20919;-74
2023/01/16 01:37:05;;;;;;;6.60;3.97;;;5.70;99.90;;;;;;6049612;23;20489;-74
2023/01/16 01:39:35;;;;;;;8.70;3.07;;;5.70;99.90;;;;;;6049679;23;20407;-74
2023/01/16 01:44:53;;;;;;;4.33;2.90;;;5.70;99.90;;;;;;6049909;23;20848;-74
2023/01/16 01:47:25;;;;;;;5.93;3.60;;;5.70;99.90;;;;;;6050108;23;20432;-74
2023/01/16 01:49:56;;;;;;;5.57;3.43;;;5.70;99.90;;;;;;6042178;23;20428;-74
2023/01/16 01:52:25;;;;;;;5.57;3.50;;;5.60;99.90;;;;;;6040497;23;20448;-74
2023/01/16 01:54:58;;;;;;;5.03;3.10;;;5.70;99.90;;;;;;6015066;23;20420;-74
2023/01/16 01:57:31;;;;;;;4.87;3.50;;;5.70;99.90;;;;;;6014729;23;20444;-74
2023/01/16 02:00:03;;;;;;;4.70;2.90;;;5.70;99.90;;;;;;6049577;23;20410;-74
2023/01/16 02:02:43;;;;;;;9.23;3.93;;;5.60;99.90;;;;;;6039638;23;20428;-74
2023/01/16 02:05:17;;;;;;;6.00;3.10;;;5.60;99.90;;;;;;6050162;23;20389;-74
2023/01/16 02:07:46;;;;;;;7.20;2.93;;;5.60;99.90;;;;;;6039837;23;20438;-74
2023/01/16 02:10:24;;;;;;;9.30;3.90;;;5.60;99.90;;;;;;6039909;23;20415;-74
2023/01/16 02:12:52;;;;;;;6.37;3.20;;;5.50;99.90;;;;;;6050076;23;20407;-74
2023/01/16 02:15:22;;;;;;;5.30;3.00;;;5.60;99.90;;;;;;6049383;23;20400;-74
2023/01/16 02:20:52;;;;;;;6.20;2.80;;;5.50;99.90;;;;;;6015021;23;20408;-74
2023/01/16 02:23:48;;;;;;;7.50;3.40;;;5.50;99.90;;;;;;6040118;23;20428;-74
2023/01/16 02:26:38;;;;;;;7.17;3.27;;;5.50;99.90;;;;;;6050200;23;20416;-74
2023/01/16 02:29:47;;;;;;;7.10;3.13;;;5.50;99.90;;;;;;6050138;23;20821;-74
2023/01/16 02:32:27;;;;;;;5.83;2.90;;;5.50;99.90;;;;;;6028437;23;20420;-74
2023/01/16 02:35:11;;;;;;;8.93;3.00;;;5.50;99.90;;;;;;6050018;23;20832;-74
2023/01/16 02:37:46;;;;;;;8.23;2.67;;;5.50;99.90;;;;;;6050398;23;20423;-74
2023/01/16 02:40:26;;;;;;;8.13;3.73;;;5.50;99.90;;;;;;6049789;23;20381;-74
2023/01/16 02:43:01;;;;;;;5.20;3.00;;;5.40;99.90;;;;;;6049614;23;20427;-74
2023/01/16 02:45:41;;;;;;;7.50;3.27;;;5.40;99.90;;;;;;6049489;23;20412;-74
2023/01/16 02:48:20;;;;;;;6.10;3.23;;;5.40;99.90;;;;;;6049955;23;20715;-74
2023/01/16 02:50:56;;;;;;;9.27;2.87;;;5.40;99.90;;;;;;6050856;23;20389;-74
2023/01/16 02:53:29;;;;;;;5.90;3.00;;;5.40;99.90;;;;;;6015032;23;20435;-74
2023/01/16 02:56:03;;;;;;;4.97;2.90;;;5.40;99.90;;;;;;6049268;23;20423;-74
2023/01/16 02:58:33;;;;;;;5.80;3.37;;;5.40;99.90;;;;;;6014706;23;20821;-74
2023/01/16 03:01:02;;;;;;;5.87;3.33;;;5.40;99.90;;;;;;6049543;23;20384;-74
2023/01/16 03:03:41;;;;;;;7.70;2.90;;;5.40;99.90;;;;;;6039875;23;20439;-74
2023/01/16 03:06:31;;;;;;;6.70;3.37;;;5.40;99.90;;;;;;6049289;23;20451;-74
2023/01/16 03:09:28;;;;;;;5.90;3.43;;;5.40;99.90;;;;;;6014590;23;20415;-74
2023/01/16 03:12:46;;;;;;;5.53;2.70;;;5.40;99.90;;;;;;6031682;23;20439;-74
2023/01/16 03:15:20;;;;;;;7.13;3.53;;;5.40;99.90;;;;;;6051122;23;20400;-74
2023/01/16 03:22:12;;;;;;;6.33;3.73;;;5.40;99.90;;;;;;6051705;23;20387;-74
2023/01/16 03:24:59;;;;;;;6.47;3.30;;;5.40;99.90;;;;;;6016135;23;20467;-74
2023/01/16 03:27:38;;;;;;;5.10;3.13;;;5.40;99.90;;;;;;6041585;23;20435;-74
2023/01/16 03:30:13;;;;;;;5.60;3.70;;;5.30;99.90;;;;;;6016233;23;20879;-74
2023/01/16 03:32:46;;;;;;;5.93;3.03;;;5.40;99.90;;;;;;6016228;23;20470;-74
2023/01/16 03:35:20;;;;;;;6.60;3.10;;;5.30;99.90;;;;;;6051209;23;20392;-74
2023/01/16 03:37:52;;;;;;;8.37;3.50;;;5.30;99.90;;;;;;6016265;23;20823;-74
2023/01/16 03:40:25;;;;;;;6.03;2.90;;;5.30;99.90;;;;;;6017255;23;20412;-74
2023/01/16 03:43:01;;;;;;;5.00;3.23;;;5.30;99.90;;;;;;6051391;23;20423;-74
2023/01/16 03:45:38;;;;;;;7.13;3.70;;;5.30;99.90;;;;;;6016409;23;20419;-74
2023/01/16 03:48:11;;;;;;;6.97;2.30;;;5.30;99.90;;;;;;6016113;23;20428;-74
2023/01/16 03:50:43;;;;;;;6.17;3.10;;;5.30;99.90;;;;;;6050985;23;20896;-74
2023/01/16 03:53:16;;;;;;;5.83;3.07;;;5.30;99.90;;;;;;6051414;23;20828;-74
2023/01/16 03:55:51;;;;;;;6.40;2.80;;;5.30;99.90;;;;;;6051107;23;20384;-74
2023/01/16 03:58:25;;;;;;;8.80;2.70;;;5.30;99.90;;;;;;6041660;23;20482;-74
2023/01/16 04:01:01;;;;;;;5.13;2.80;;;5.30;99.90;;;;;;6016369;23;20900;-74
2023/01/16 04:03:38;;;;;;;5.30;2.53;;;5.20;99.90;;;;;;6050598;23;20775;-74
2023/01/16 04:06:14;;;;;;;6.47;2.63;;;5.20;99.90;;;;;;6050891;23;20420;-74
2023/01/16 04:08:46;;;;;;;5.43;2.83;;;5.20;99.90;;;;;;6051005;23;20388;-74
2023/01/16 04:11:18;;;;;;;5.33;2.60;;;5.20;99.90;;;;;;6015904;23;20408;-74
2023/01/16 04:13:50;;;;;;;5.00;2.53;;;5.20;99.90;;;;;;6015918;23;20419;-74
2023/01/16 04:16:20;;;;;;;4.40;2.27;;;5.20;99.90;;;;;;6016101;23;20439;-74
2023/01/16 04:18:50;;;;;;;8.03;2.47;;;5.20;99.90;;;;;;6015861;23;20900;-74
2023/01/16 04:21:18;;;;;;;5.13;2.63;;;5.20;99.90;;;;;;6050829;23;20400;-74
2023/01/16 04:23:47;;;;;;;6.13;2.50;;;5.20;99.90;;;;;;6050385;23;20766;-74
2023/01/16 04:26:15;;;;;;;4.50;2.37;;;5.20;99.90;;;;;;6050199;23;20920;-74
2023/01/16 04:28:44;;;;;;;4.07;2.17;;;5.20;99.90;;;;;;6050784;23;20420;-74
2023/01/16 04:31:12;;;;;;;4.10;2.00;;;5.20;99.90;;;;;;6050348;23;20892;-74
2023/01/16 04:33:40;;;;;;;8.33;2.23;;;5.20;99.90;;;;;;6050559;23;20412;-74
2023/01/16 04:36:08;;;;;;;4.50;2.30;;;5.20;99.90;;;;;;6015560;23;20451;-74
2023/01/16 04:38:36;;;;;;;4.60;2.93;;;5.20;99.90;;;;;;6050444;23;20404;-74
2023/01/16 04:41:06;;;;;;;5.80;2.37;;;5.20;99.90;;;;;;6040642;23;20923;-74
2023/01/16 04:43:34;;;;;;;3.90;1.80;;;5.20;99.90;;;;;;6050232;23;20432;-74
2023/01/16 04:46:02;;;;;;;6.50;2.30;;;5.10;99.90;;;;;;6040884;23;20428;-74
2023/01/16 04:48:30;;;;;;;5.20;2.50;;;5.20;99.90;;;;;;6015366;23;20886;-74
2023/01/16 04:50:58;;;;;;;4.80;3.30;;;5.20;99.90;;;;;;6050761;23;20380;-74
2023/01/16 04:53:26;;;;;;;5.67;2.67;;;5.20;99.90;;;;;;6015656;23;20420;-74
2023/01/16 04:55:54;;;;;;;4.73;2.60;;;5.20;99.90;;;;;;6040899;23;20519;-74
2023/01/16 04:58:24;;;;;;;5.53;2.73;;;5.20;99.90;;;;;;6050073;23;20404;-74
2023/01/16 05:00:54;;;;;;;7.60;2.60;;;5.10;99.90;;;;;;6050148;23;20903;-74
2023/01/16 05:03:22;;;;;;;4.80;2.60;;;5.20;99.90;;;;;;6050036;23;20392;-74
2023/01/16 05:05:50;;;;;;;4.57;2.57;;;5.20;99.90;;;;;;6049988;23;20740;-74
2023/01/16 05:08:18;;;;;;;6.90;3.13;;;5.20;99.90;;;;;;6050345;23;20445;-74
2023/01/16 05:10:47;;;;;;;5.80;2.87;;;5.10;99.90;;;;;;6050292;23;20888;-74
2023/01/16 05:13:15;;;;;;;5.30;2.97;;;5.20;99.90;;;;;;6049919;23;20408;-74
2023/01/16 05:15:45;;;;;;;5.30;3.50;;;5.20;99.90;;;;;;6049931;23;20406;-74
2023/01/16 05:18:13;;;;;;;4.73;2.73;;;5.20;99.90;;;;;;6015161;23;20950;-74
2023/01/16 05:20:42;;;;;;;7.60;3.60;;;5.20;99.90;;;;;;6050226;23;20411;-74
2023/01/16 05:23:10;;;;;;;4.67;3.60;;;5.20;99.90;;;;;;6049884;23;20963;-74
2023/01/16 05:25:38;;;;;;;8.80;3.30;;;5.20;99.90;;;;;;6050153;23;20431;-74
2023/01/16 05:28:07;;;;;;;6.10;3.70;;;5.20;99.90;;;;;;6049906;23;20420;-74
2023/01/16 05:30:35;;;;;;;4.83;3.37;;;5.20;99.90;;;;;;6015213;23;20459;-74
2023/01/16 05:33:06;;;;;;;6.00;4.20;;;5.20;99.90;;;;;;6040611;23;20411;-74
2023/01/16 05:35:34;;;;;;;5.90;3.50;;;5.20;99.90;;;;;;6040691;23;20415;-74
2023/01/16 05:38:02;;;;;;;5.70;3.87;;;5.20;99.90;;;;;;6049582;23;20403;-75
2023/01/16 05:40:30;;;;;;;4.33;3.73;;;5.20;99.90;;;;;;6049660;23;20408;-75
2023/01/16 05:42:58;;;;;;;4.80;3.40;;;5.20;99.90;;;;;;6040232;23;20412;-75
2023/01/16 05:45:26;;;;;;;7.40;5.37;;;5.20;99.90;;;;;;6049956;23;20432;-75
2023/01/16 05:47:57;;;;;;;6.10;4.10;;;5.30;99.90;;;;;;6040357;23;20436;-75
2023/01/16 05:50:27;;;;;;;8.83;4.20;;;5.20;99.90;;;;;;6049606;23;20412;-75
2023/01/16 05:52:55;;;;;;;4.80;3.63;;;5.20;99.90;;;;;;6049711;23;20407;-75
2023/01/16 05:55:23;;;;;;;8.73;6.13;;;5.20;99.90;;;;;;6040302;23;20794;-74
2023/01/16 05:57:51;;;;;;;6.33;4.03;;;5.20;99.90;;;;;;6014793;23;20478;-75
2023/01/16 06:00:20;;;;;;;4.90;4.13;;;5.20;99.90;;;;;;6049906;23;20401;-75
2023/01/16 06:02:50;;;;;;;5.60;4.00;;;5.20;99.90;;;;;;6040415;23;20407;-75
2023/01/16 06:05:18;;;;;;;8.70;4.13;;;5.20;99.90;;;;;;6049777;23;20436;-75
2023/01/16 06:07:55;;;;;;;4.53;3.23;;;5.20;99.90;;;;;;6049403;23;20446;-75
2023/01/16 06:10:24;;;;;;;5.83;4.10;;;5.20;99.90;;;;;;6014730;23;20424;-75
2023/01/16 06:12:54;;;;;;;7.40;4.53;;;5.20;99.90;;;;;;6040397;23;20389;-75
2023/01/16 06:15:22;;;;;;;6.63;4.80;;;5.20;99.90;;;;;;6049694;23;20396;-75
2023/01/16 06:17:53;;;;;;;6.60;5.33;;;5.20;99.90;;;;;;6014646;23;20780;-75
2023/01/16 06:20:22;;;;;;;5.93;4.77;;;5.20;99.90;;;;;;6015104;23;20510;-75
2023/01/16 06:22:52;;;;;;;5.83;5.10;;;5.20;99.90;;;;;;6049313;23;20495;-75
2023/01/16 06:25:20;;;;;;;6.50;5.67;;;5.10;99.90;;;;;;6049166;23;20495;-75
2023/01/16 06:27:49;;;;;;;6.40;5.03;;;5.10;99.90;;;;;;6049510;23;20435;-75
2023/01/16 06:30:18;;;;;;;7.03;6.33;;;5.10;99.90;;;;;;6014720;23;20935;-75
2023/01/16 06:32:49;;;;;;;9.90;7.20;;;5.10;99.90;;;;;;6014673;23;20416;-74
2023/01/16 06:35:17;;;;;;;8.50;6.80;;;5.10;99.90;;;;;;6014654;23;20448;-75
2023/01/16 06:37:45;;;;;;;9.17;7.70;;;5.10;99.90;;;;;;6050425;23;20507;-75
2023/01/16 06:40:15;;;;;;;8.20;7.40;;;5.10;99.90;;;;;;6040050;23;20727;-75
2023/01/16 06:42:43;;;;;;;10.07;8.10;;;5.00;99.90;;;;;;6049230;23;20393;-75
2023/01/16 06:45:11;;;;;;;10.07;7.20;;;5.00;99.90;;;;;;6014298;23;21024;-75
2023/01/16 06:47:39;;;;;;;7.10;6.40;;;5.00;99.90;;;;;;6049251;23;20431;-75
2023/01/16 06:50:09;;;;;;;11.50;8.30;;;5.00;99.90;;;;;;6052214;23;20412;-75
2023/01/16 06:52:39;;;;;;;10.37;7.80;;;4.90;99.90;;;;;;6052636;23;20716;-75
2023/01/16 06:55:08;;;;;;;8.90;6.43;;;4.90;99.90;;;;;;6052685;23;20956;-75
2023/01/16 06:57:38;;;;;;;8.80;7.53;;;4.90;99.90;;;;;;6046955;23;20471;-75
2023/01/16 07:00:07;;;;;;;9.33;7.70;;;4.90;99.90;;;;;;6054330;23;20388;-75
2023/01/16 07:02:39;;;;;;;10.90;7.47;;;4.80;99.90;;;;;;6017996;23;20411;-75
2023/01/16 07:05:08;;;;;;;9.77;6.70;;;4.80;99.90;;;;;;6052744;23;20420;-75
2023/01/16 07:07:37;;;;;;;6.97;5.57;;;4.80;99.90;;;;;;6052575;23;20442;-75
2023/01/16 07:10:05;;;;;;;10.00;6.10;;;4.80;99.90;;;;;;6017621;23;20419;-75
2023/01/16 07:12:33;;;;;;;8.87;5.97;;;4.70;99.90;;;;;;6052308;23;20954;-75
2023/01/16 07:23:22;;;;;;;6.90;5.00;;;4.60;99.90;;;;;;6052376;23;20384;-75
2023/01/16 07:25:51;;;;;;;8.27;5.10;;;4.70;99.90;;;;;;6017506;23;20791;-75
2023/01/16 07:28:20;;;;;;;7.47;5.50;;;4.60;99.90;;;;;;6052573;23;20399;-75
2023/01/16 07:30:51;;;;;;;8.67;5.40;;;4.70;99.90;;;;;;6017535;23;20428;-74
2023/01/16 07:33:19;;;;;;;7.00;4.50;;;4.70;99.90;;;;;;6052776;23;20411;-75
2023/01/16 07:35:47;;;;;;;7.03;4.70;;;4.60;99.90;;;;;;6053197;23;20455;-75
2023/01/16 07:38:15;;;;;;;8.23;4.50;;;4.60;99.90;;;;;;6018697;23;20415;-75
2023/01/16 07:40:43;;;;;;;7.40;3.70;;;4.60;99.90;;;;;;6053742;23;20516;-75
2023/01/16 07:43:11;;;;;;;6.73;3.67;;;4.60;99.90;;;;;;6017737;23;20895;-75
2023/01/16 07:45:39;;;;;;;7.17;3.47;;;4.60;99.90;;;;;;6052403;23;20432;-75
2023/01/16 07:48:09;;;;;;;6.23;3.33;;;5.10;99.90;;;;;;6017387;23;20887;-75
2023/01/16 07:50:37;;;;;;;6.30;3.53;;;4.60;99.90;;;;;;6039721;23;20511;-75
2023/01/16 07:53:05;;;;;;;5.40;3.60;;;4.60;99.90;;;;;;6040863;23;20419;-74
2023/01/16 07:55:33;;;;;;;7.50;3.30;;;4.60;99.90;;;;;;6052458;23;20400;-75
2023/01/16 07:58:01;;;;;;;8.47;7.10;;;4.60;99.90;;;;;;6052110;23;20498;-74
2023/01/16 08:00:30;;;;;;;33.27;22.60;;;4.60;99.90;;;;;;6041564;23;20754;-74
2023/01/16 08:02:59;;;;;;;11.40;7.30;;;4.60;99.90;;;;;;6050521;23;20455;-74
2023/01/16 08:05:28;;;;;;;15.43;9.40;;;4.60;99.90;;;;;;6039449;23;20439;-74
2023/01/16 08:07:56;;;;;;;9.33;5.40;;;4.60;99.90;;;;;;6039399;23;20782;-75
2023/01/16 08:10:24;;;;;;;12.07;7.97;;;4.60;99.90;;;;;;6041239;23;20423;-75
2023/01/16 08:12:52;;;;;;;7.53;3.60;;;4.60;99.90;;;;;;6050705;23;20400;-74
2023/01/16 08:15:20;;;;;;;9.57;6.70;;;4.60;99.90;;;;;;6050659;23;20409;-74
2023/01/16 08:17:48;;;;;;;5.77;2.70;;;4.60;99.90;;;;;;6040834;23;20951;-75
2023/01/16 08:20:17;;;;;;;7.53;4.43;;;4.60;99.90;;;;;;6039409;23;20424;-76
2023/01/16 08:22:49;;;;;;;7.73;4.03;;;4.60;99.90;;;;;;6050790;23;20408;-75
2023/01/16 08:25:20;;;;;;;6.47;3.50;;;4.60;99.90;;;;;;6050772;23;20420;-75
2023/01/16 08:27:48;;;;;;;6.33;3.50;;;4.60;99.90;;;;;;6050780;23;20420;-75
2023/01/16 08:30:17;;;;;;;6.00;2.83;;;4.60;99.90;;;;;;6041772;23;20416;-75
2023/01/16 08:32:47;;;;;;;4.93;2.70;;;4.60;99.90;;;;;;6040776;23;20396;-75
2023/01/16 08:35:15;;;;;;;4.47;2.40;;;4.60;99.90;;;;;;6050286;23;20400;-75
2023/01/16 08:37:50;;;;;;;6.13;2.50;;;4.60;99.90;;;;;;6040965;23;20432;-75
2023/01/16 08:40:19;;;;;;;4.70;2.27;;;4.60;99.90;;;;;;6039144;23;20423;-75
2023/01/16 08:51:25;;;;;;;5.67;2.10;;;4.60;99.90;;;;;;6050477;23;20443;-75
2023/01/16 08:53:57;;;;;;;5.53;2.30;;;4.60;99.90;;;;;;6015629;23;20464;-75
2023/01/16 08:56:26;;;;;;;4.37;2.07;;;4.70;99.90;;;;;;6015546;23;20432;-75
2023/01/16 08:58:54;;;;;;;4.70;2.30;;;4.70;99.90;;;;;;6017191;23;20430;-75
2023/01/16 09:01:22;;;;;;;5.43;2.00;;;4.70;99.90;;;;;;6052132;23;20902;-75
2023/01/16 09:03:50;;;;;;;9.63;2.70;;;4.70;99.90;;;;;;6041277;23;20416;-75
2023/01/16 09:06:18;;;;;;;3.40;2.20;;;4.70;99.90;;;;;;6041575;23;20455;-75
2023/01/16 09:08:46;;;;;;;3.67;1.90;;;4.70;99.90;;;;;;6051495;23;20992;-75
2023/01/16 09:14:01;;;;;;;5.87;2.30;;;4.70;99.90;;;;;;6050690;23;20387;-75
2023/01/16 09:16:32;;;;;;;4.70;2.10;;;4.80;99.90;;;;;;6051106;23;20504;-75
2023/01/16 09:19:00;;;;;;;4.00;2.13;;;4.80;99.90;;;;;;6041469;23;20404;-75
2023/01/16 09:21:28;;;;;;;4.17;1.83;;;4.80;99.90;;;;;;6050658;23;20495;-75
2023/01/16 09:23:56;;;;;;;4.20;1.93;;;4.90;99.90;;;;;;6050378;23;20758;-75
2023/01/16 09:26:26;;;;;;;7.70;2.77;;;4.90;99.90;;;;;;6015494;23;20459;-75
2023/01/16 09:28:54;;;;;;;3.37;2.13;;;4.80;99.90;;;;;;6015418;23;20424;-75
2023/01/16 09:31:22;;;;;;;4.90;2.40;;;4.90;99.90;;;;;;6015265;23;20424;-75
2023/01/16 09:33:52;;;;;;;5.87;2.50;;;4.90;99.90;;;;;;6050342;23;20486;-75
2023/01/16 09:36:20;;;;;;;3.23;2.10;;;4.90;99.90;;;;;;6049797;23;20452;-75
2023/01/16 09:38:48;;;;;;;5.40;3.13;;;4.90;99.90;;;;;;6049954;23;20407;-75
2023/01/16 09:43:35;;;;;;;5.67;2.27;;;4.90;99.90;;;;;;6049866;23;20759;-75
2023/01/16 09:44:11;;;;;;;6.23;2.40;;;4.90;99.90;;;;;;6049334;23;20884;-75
2023/01/16 09:46:43;;;;;;;4.20;2.23;;;5.10;99.90;;;;;;6014915;23;20858;-75
2023/01/16 09:49:22;;;;;;;3.50;1.67;;;5.00;99.90;;;;;;6020377;23;20464;-75
2023/01/16 10:00:22;;;;;;;4.20;2.03;;;5.10;99.90;;;;;;6036394;23;20411;-75
2023/01/16 10:02:51;;;;;;;3.37;1.87;;;5.10;99.90;;;;;;6047316;23;20396;-74
2023/01/16 10:05:20;;;;;;;5.13;2.33;;;5.10;99.90;;;;;;6047891;23;20469;-75
2023/01/16 10:07:56;;;;;;;4.00;2.50;;;5.10;99.90;;;;;;6047416;23;20436;-75
2023/01/16 10:10:36;;;;;;;5.80;2.90;;;5.20;99.90;;;;;;6049378;23;20396;-75
2023/01/16 10:13:26;;;;;;;5.40;1.80;;;5.20;99.90;;;;;;6038391;23;20419;-75
2023/01/16 10:16:05;;;;;;;5.53;2.50;;;5.20;99.90;;;;;;6049671;23;20420;-75
2023/01/16 10:18:43;;;;;;;4.50;2.37;;;5.20;99.90;;;;;;6038331;23;20451;-75
2023/01/16 10:21:26;;;;;;;4.10;2.33;;;5.20;99.90;;;;;;6049757;23;20798;-75
2023/01/16 10:24:00;;;;;;;4.10;2.60;;;5.20;99.90;;;;;;6037915;23;20720;-74
2023/01/16 10:26:30;;;;;;;5.43;2.67;;;5.30;99.90;;;;;;6040335;23;20451;-74
2023/01/16 10:29:06;;;;;;;3.77;2.33;;;5.30;99.90;;;;;;6040169;23;20415;-74
2023/01/16 10:31:42;;;;;;;7.27;5.03;;;5.30;99.90;;;;;;6049440;23;20833;-74
2023/01/16 10:34:16;;;;;;;3.87;2.20;;;5.40;99.90;;;;;;6038288;23;20915;-74
2023/01/16 10:36:49;;;;;;;3.80;2.20;;;5.40;99.90;;;;;;6049333;23;20427;-74
2023/01/16 10:39:20;;;;;;;4.70;2.00;;;5.40;99.90;;;;;;6049723;23;20397;-75
2023/01/16 10:50:15;;;;;;;4.00;2.07;;;5.60;99.90;;;;;;6039285;23;20452;-74
2023/01/16 10:52:56;;;;;;;4.03;2.00;;;5.60;99.90;;;;;;6050609;23;20384;-74
2023/01/16 10:55:24;;;;;;;5.13;2.53;;;5.60;99.90;;;;;;6050005;23;20491;-74
2023/01/16 10:57:56;;;;;;;4.97;2.40;;;5.60;99.90;;;;;;6049262;23;20423;-74
2023/01/16 11:00:29;;;;;;;4.73;2.20;;;5.70;99.90;;;;;;6038367;23;20447;-73
2023/01/16 11:03:01;;;;;;;4.07;2.17;;;5.70;99.90;;;;;;6049144;23;20785;-73
2023/01/16 11:05:31;;;;;;;4.13;2.17;;;5.70;99.90;;;;;;6049452;23;20388;-74
2023/01/16 11:08:07;;;;;;;8.30;5.40;;;5.70;99.90;;;;;;6049423;23;20756;-74
2023/01/16 11:10:35;;;;;;;4.13;2.00;;;5.70;99.90;;;;;;6038227;23;20404;-73
2023/01/16 11:18:53;;;;;;;4.83;2.40;;;5.80;99.90;;;;;;6049489;23;20376;-74
2023/01/16 11:21:27;;;;;;;5.30;2.00;;;5.80;99.90;;;;;;6049383;23;20409;-74
2023/01/16 11:23:59;;;;;;;3.80;2.23;;;5.80;99.90;;;;;;6049260;23;20476;-74
2023/01/16 11:26:28;;;;;;;5.53;2.50;;;5.80;99.90;;;;;;6049357;23;20491;-74
2023/01/16 11:28:57;;;;;;;5.63;2.17;;;5.80;99.90;;;;;;6049052;23;20401;-74
2023/01/16 11:31:30;;;;;;;4.30;2.00;;;5.80;99.90;;;;;;6039923;23;20443;-74
2023/01/16 11:34:04;;;;;;;3.97;1.77;;;5.80;99.90;;;;;;6039816;23;20405;-74
2023/01/16 11:36:35;;;;;;;4.00;1.70;;;5.80;99.90;;;;;;6050428;23;20420;-74
2023/01/16 11:39:05;;;;;;;3.80;1.77;;;5.80;99.90;;;;;;6050743;23;20427;-74
2023/01/16 11:41:36;;;;;;;3.93;1.80;;;5.80;99.90;;;;;;6039745;23;20429;-74
2023/01/16 11:47:00;;;;;;;3.60;2.03;;;5.80;99.90;;;;;;6039605;23;20966;-74
2023/01/16 11:49:35;;;;;;;4.13;2.10;;;5.80;99.90;;;;;;6050723;23;20503;-74
2023/01/16 11:52:05;;;;;;;4.13;1.90;;;5.80;99.90;;;;;;6016350;23;20868;-74
2023/01/16 11:54:35;;;;;;;5.47;2.43;;;5.80;99.90;;;;;;6051061;23;20412;-74
2023/01/16 11:57:32;;;;;;;5.23;2.50;;;5.80;99.90;;;;;;6050666;23;20541;-74
2023/01/16 12:00:23;;;;;;;3.40;1.67;;;5.80;99.90;;;;;;6051437;23;20419;-75
2023/01/16 12:03:42;;;;;;;5.47;2.37;;;5.80;99.90;;;;;;6051444;23;20455;-73
2023/01/16 12:06:26;;;;;;;4.07;2.00;;;5.80;99.90;;;;;;5955350;23;20546;-74
2023/01/16 12:09:10;;;;;;;4.83;1.80;;;5.80;99.90;;;;;;6050579;23;20425;-74
2023/01/16 12:14:17;;;;;;;4.00;1.90;;;5.80;99.90;;;;;;6051067;23;20380;-73
2023/01/16 12:15:01;;;;;;;5.07;2.40;;;5.80;99.90;;;;;;6041348;23;20747;-75
2023/01/16 12:17:49;;;;;;;4.80;2.30;;;5.80;99.90;;;;;;6051620;23;20420;-74
2023/01/16 12:20:26;;;;;;;7.03;3.13;;;5.80;99.90;;;;;;6017293;23;20519;-75
2023/01/16 12:23:16;;;;;;;4.70;2.10;;;5.80;99.90;;;;;;6052054;23;20463;-75
2023/01/16 12:25:51;;;;;;;3.90;2.33;;;5.80;99.90;;;;;;6052399;23;20390;-74
2023/01/16 12:28:31;;;;;;;5.73;2.67;;;5.80;99.90;;;;;;6018062;23;20753;-75
2023/01/16 12:31:21;;;;;;;5.13;2.23;;;5.80;99.90;;;;;;6041367;23;20784;-74
2023/01/16 12:34:07;;;;;;;5.30;2.63;;;5.80;99.90;;;;;;6041453;23;20397;-74
2023/01/16 12:36:45;;;;;;;7.27;2.67;;;5.90;99.90;;;;;;6015796;23;20472;-75
2023/01/16 12:39:22;;;;;;;3.93;1.90;;;5.90;99.90;;;;;;6016317;23;20916;-74
2023/01/16 12:44:49;;;;;;;4.10;2.00;;;5.90;99.90;;;;;;6051246;23;20416;-74
2023/01/16 12:47:32;;;;;;;6.23;2.00;;;5.90;99.90;;;;;;6050717;23;20443;-74
2023/01/16 12:50:12;;;;;;;7.20;1.90;;;5.90;99.90;;;;;;6031188;23;20923;-74
2023/01/16 12:52:57;;;;;;;3.77;1.70;;;5.90;99.90;;;;;;6051287;23;20388;-74
2023/01/16 12:55:35;;;;;;;5.70;2.23;;;5.90;99.90;;;;;;6050599;23;20508;-74
2023/01/16 12:58:21;;;;;;;6.17;2.20;;;6.00;99.90;;;;;;6039726;23;20900;-75
2023/01/16 13:01:04;;;;;;;4.60;2.63;;;6.00;99.90;;;;;;6051101;23;20891;-75
2023/01/16 13:03:39;;;;;;;5.10;3.83;;;6.00;99.90;;;;;;6050712;23;20384;-74
2023/01/16 13:06:12;;;;;;;4.97;2.23;;;6.00;99.90;;;;;;6039042;23;20439;-74
2023/01/16 13:08:44;;;;;;;3.67;1.73;;;6.00;99.90;;;;;;6050575;23;20438;-74
2023/01/16 13:14:11;;;;;;;3.57;1.60;;;6.00;99.90;;;;;;6052864;23;20420;-73
2023/01/16 13:16:44;;;;;;;3.97;2.13;;;6.00;99.90;;;;;;6042208;23;20783;-74
2023/01/16 13:19:16;;;;;;;3.87;2.17;;;6.10;99.90;;;;;;6054817;23;20467;-74
2023/01/16 13:21:53;;;;;;;17.27;10.77;;;6.10;99.90;;;;;;6050730;23;20477;-73
2023/01/16 13:24:27;;;;;;;9.50;5.23;;;6.00;99.90;;;;;;6040187;23;20416;-75
2023/01/16 13:27:03;;;;;;;5.53;2.60;;;6.00;99.90;;;;;;6050735;23;20416;-73
2023/01/16 13:29:37;;;;;;;5.40;2.50;;;6.00;99.90;;;;;;6050075;23;20426;-73
2023/01/16 13:32:13;;;;;;;5.00;2.20;;;6.00;99.90;;;;;;6050607;23;20389;-73
2023/01/16 13:34:52;;;;;;;4.20;2.73;;;6.00;99.90;;;;;;6039180;23;20412;-73
2023/01/16 13:37:38;;;;;;;4.57;2.50;;;6.00;99.90;;;;;;6038804;23;20442;-73
2023/01/16 13:40:56;;;;;;;4.40;2.17;;;6.10;99.90;;;;;;6049862;23;20394;-73
2023/01/16 13:46:18;;;;;;;4.90;2.80;;;6.00;99.90;;;;;;6050100;23;20416;-74
2023/01/16 13:48:52;;;;;;;4.30;2.10;;;6.00;99.90;;;;;;6038325;23;20835;-75
2023/01/16 13:51:23;;;;;;;5.73;1.97;;;6.00;99.90;;;;;;6050361;23;20408;-74
2023/01/16 13:53:55;;;;;;;5.83;2.20;;;6.00;99.90;;;;;;6038603;23;20444;-74
2023/01/16 13:56:26;;;;;;;3.83;1.63;;;6.00;99.90;;;;;;6050033;23;20416;-74
2023/01/16 13:59:02;;;;;;;4.17;1.50;;;6.00;99.90;;;;;;6051474;23;20417;-74
2023/01/16 14:01:37;;;;;;;4.30;1.60;;;6.00;99.90;;;;;;6041178;23;20416;-73
2023/01/16 14:04:28;;;;;;;4.10;2.00;;;6.00;99.90;;;;;;6039921;23;20487;-75
2023/01/16 14:10:13;;;;;;;3.27;1.23;;;5.90;99.90;;;;;;6049458;23;20456;-73
2023/01/16 14:12:46;;;;;;;3.93;1.90;;;5.90;99.90;;;;;;6038465;23;20823;-74
2023/01/16 14:18:16;;;;;;;3.60;1.50;;;5.90;99.90;;;;;;6049560;23;20464;-74
2023/01/16 14:20:50;;;;;;;7.87;5.67;;;5.90;99.90;;;;;;6049515;23;20395;-74
2023/01/16 14:26:17;;;;;;;5.97;2.07;;;5.80;99.90;;;;;;6040123;23;20438;-74
2023/01/16 14:28:48;;;;;;;4.30;2.40;;;5.80;99.90;;;;;;6038320;23;20451;-74
2023/01/16 14:31:25;;;;;;;4.80;1.67;;;5.80;99.90;;;;;;6049869;23;20387;-74
2023/01/16 14:33:57;;;;;;;4.00;2.10;;;5.80;99.90;;;;;;6040281;23;20407;-74
2023/01/16 14:36:29;;;;;;;4.43;1.70;;;5.80;99.90;;;;;;6049820;23;20419;-74
2023/01/16 14:38:57;;;;;;;3.57;1.40;;;5.80;99.90;;;;;;6050346;23;20381;-74